sensor_id;sensor_type;location;lat;lon;timestamp;pressure;altitude;pressure_sealevel;temperature;humidity
21988;BME280;11158;53.404;-1.510;2022-09-09T00:02:21;99255.00;;;21.38;55.84
21988;BME280;11158;53.404;-1.510;2022-09-09T00:05:04;99257.38;;;21.49;55.71
21988;BME280;11158;53.404;-1.510;2022-09-09T00:07:43;99255.19;;;21.51;55.55
21988;BME280;11158;53.404;-1.510;2022-09-09T00:15:19;99264.34;;;21.21;56.06
21988;BME280;11158;53.404;-1.510;2022-09-09T00:18:01;99264.63;;;21.20;56.19
21988;BME280;11158;53.404;-1.510;2022-09-09T00:20:34;99274.69;;;21.19;56.50
21988;BME280;11158;53.404;-1.510;2022-09-09T00:23:06;99278.41;;;20.84;57.56
21988;BME280;11158;53.404;-1.510;2022-09-09T00:28:02;99281.59;;;19.49;61.37
21988;BME280;11158;53.404;-1.510;2022-09-09T00:30:34;99281.34;;;20.07;60.33
21988;BME280;11158;53.404;-1.510;2022-09-09T00:33:03;99275.81;;;20.48;58.68
21988;BME280;11158;53.404;-1.510;2022-09-09T00:35:38;99273.03;;;20.74;58.09
21988;BME280;11158;53.404;-1.510;2022-09-09T00:38:14;99271.13;;;20.74;57.97
21988;BME280;11158;53.404;-1.510;2022-09-09T00:43:31;99271.91;;;20.85;57.67
21988;BME280;11158;53.404;-1.510;2022-09-09T00:57:26;99265.97;;;20.73;59.24
21988;BME280;11158;53.404;-1.510;2022-09-09T01:00:19;99270.25;;;20.84;58.18
21988;BME280;11158;53.404;-1.510;2022-09-09T01:08:08;99273.66;;;20.45;59.27
21988;BME280;11158;53.404;-1.510;2022-09-09T01:10:49;99274.38;;;20.76;58.83
21988;BME280;11158;53.404;-1.510;2022-09-09T01:13:22;99274.41;;;20.71;58.11
21988;BME280;11158;53.404;-1.510;2022-09-09T01:15:49;99274.69;;;20.54;58.88
21988;BME280;11158;53.404;-1.510;2022-09-09T01:18:17;99269.06;;;20.35;59.54
21988;BME280;11158;53.404;-1.510;2022-09-09T01:28:47;99270.22;;;20.19;59.91
21988;BME280;11158;53.404;-1.510;2022-09-09T01:31:18;99275.56;;;20.44;59.36
21988;BME280;11158;53.404;-1.510;2022-09-09T01:33:44;99268.97;;;20.66;58.68
21988;BME280;11158;53.404;-1.510;2022-09-09T01:36:20;99277.13;;;20.71;59.11
21988;BME280;11158;53.404;-1.510;2022-09-09T01:38:47;99270.25;;;20.84;57.91
21988;BME280;11158;53.404;-1.510;2022-09-09T01:41:13;99270.44;;;20.98;57.99
21988;BME280;11158;53.404;-1.510;2022-09-09T01:43:38;99274.16;;;21.17;57.41
21988;BME280;11158;53.404;-1.510;2022-09-09T01:46:04;99275.56;;;21.04;57.56
21988;BME280;11158;53.404;-1.510;2022-09-09T01:48:31;99267.38;;;21.09;57.29
21988;BME280;11158;53.404;-1.510;2022-09-09T01:50:57;99264.53;;;21.35;56.62
21988;BME280;11158;53.404;-1.510;2022-09-09T01:53:23;99268.94;;;21.26;56.52
21988;BME280;11158;53.404;-1.510;2022-09-09T02:01:47;99256.84;;;21.47;56.17
21988;BME280;11158;53.404;-1.510;2022-09-09T02:06:55;99260.13;;;21.00;57.33
21988;BME280;11158;53.404;-1.510;2022-09-09T02:09:26;99259.69;;;20.77;57.73
21988;BME280;11158;53.404;-1.510;2022-09-09T02:12:13;99253.56;;;20.56;58.46
21988;BME280;11158;53.404;-1.510;2022-09-09T02:14:49;99262.38;;;19.97;59.99
21988;BME280;11158;53.404;-1.510;2022-09-09T02:17:20;99253.44;;;19.81;60.60
21988;BME280;11158;53.404;-1.510;2022-09-09T02:19:56;99254.81;;;19.78;60.66
21988;BME280;11158;53.404;-1.510;2022-09-09T02:22:26;99249.94;;;19.75;61.03
21988;BME280;11158;53.404;-1.510;2022-09-09T02:24:56;99252.34;;;19.46;61.86
21988;BME280;11158;53.404;-1.510;2022-09-09T02:27:24;99250.97;;;19.23;62.52
21988;BME280;11158;53.404;-1.510;2022-09-09T02:29:52;99253.16;;;19.62;61.26
21988;BME280;11158;53.404;-1.510;2022-09-09T02:32:22;99256.94;;;20.12;59.90
21988;BME280;11158;53.404;-1.510;2022-09-09T02:35:02;99256.94;;;20.02;59.77
21988;BME280;11158;53.404;-1.510;2022-09-09T02:37:32;99264.56;;;19.59;61.28
21988;BME280;11158;53.404;-1.510;2022-09-09T02:40:07;99269.44;;;19.87;60.77
21988;BME280;11158;53.404;-1.510;2022-09-09T02:42:41;99261.84;;;20.00;60.25
21988;BME280;11158;53.404;-1.510;2022-09-09T02:45:09;99263.44;;;20.16;59.73
21988;BME280;11158;53.404;-1.510;2022-09-09T02:47:39;99265.38;;;19.80;60.74
21988;BME280;11158;53.404;-1.510;2022-09-09T02:50:32;99271.06;;;19.78;60.62
21988;BME280;11158;53.404;-1.510;2022-09-09T02:55:40;99268.88;;;19.44;61.93
21988;BME280;11158;53.404;-1.510;2022-09-09T02:58:13;99268.34;;;19.83;61.05
21988;BME280;11158;53.404;-1.510;2022-09-09T03:00:46;99265.13;;;19.81;60.78
21988;BME280;11158;53.404;-1.510;2022-09-09T03:03:12;99262.88;;;20.14;59.58
21988;BME280;11158;53.404;-1.510;2022-09-09T03:05:38;99269.41;;;20.18;59.92
21988;BME280;11158;53.404;-1.510;2022-09-09T03:08:04;99271.88;;;20.04;59.86
21988;BME280;11158;53.404;-1.510;2022-09-09T03:10:32;99268.25;;;20.40;58.71
21988;BME280;11158;53.404;-1.510;2022-09-09T03:12:58;99266.38;;;20.30;59.40
21988;BME280;11158;53.404;-1.510;2022-09-09T03:15:24;99263.63;;;20.40;59.11
21988;BME280;11158;53.404;-1.510;2022-09-09T03:17:56;99256.66;;;20.19;59.58
21988;BME280;11158;53.404;-1.510;2022-09-09T03:20:23;99257.78;;;19.87;60.73
21988;BME280;11158;53.404;-1.510;2022-09-09T03:22:54;99266.38;;;20.20;59.70
21988;BME280;11158;53.404;-1.510;2022-09-09T03:25:20;99270.25;;;19.78;60.90
21988;BME280;11158;53.404;-1.510;2022-09-09T03:27:50;99269.47;;;19.77;61.02
21988;BME280;11158;53.404;-1.510;2022-09-09T03:30:21;99264.00;;;19.98;60.91
21988;BME280;11158;53.404;-1.510;2022-09-09T03:32:47;99262.84;;;20.24;60.04
21988;BME280;11158;53.404;-1.510;2022-09-09T03:35:14;99271.34;;;19.72;61.18
21988;BME280;11158;53.404;-1.510;2022-09-09T03:37:41;99272.66;;;19.33;62.79
21988;BME280;11158;53.404;-1.510;2022-09-09T03:40:08;99274.34;;;19.91;61.01
21988;BME280;11158;53.404;-1.510;2022-09-09T03:42:36;99267.81;;;19.45;62.50
21988;BME280;11158;53.404;-1.510;2022-09-09T03:45:07;99280.28;;;19.62;61.71
21988;BME280;11158;53.404;-1.510;2022-09-09T03:47:35;99277.53;;;19.41;62.44
21988;BME280;11158;53.404;-1.510;2022-09-09T03:50:00;99273.22;;;19.51;62.40
21988;BME280;11158;53.404;-1.510;2022-09-09T03:52:26;99270.78;;;19.64;61.65
21988;BME280;11158;53.404;-1.510;2022-09-09T03:54:53;99277.03;;;19.80;61.52
21988;BME280;11158;53.404;-1.510;2022-09-09T03:57:20;99265.91;;;19.87;60.40
21988;BME280;11158;53.404;-1.510;2022-09-09T03:59:45;99275.38;;;19.54;61.55
21988;BME280;11158;53.404;-1.510;2022-09-09T04:02:12;99271.88;;;19.48;61.77
21988;BME280;11158;53.404;-1.510;2022-09-09T04:04:37;99281.13;;;19.73;61.04
21988;BME280;11158;53.404;-1.510;2022-09-09T04:07:03;99280.25;;;19.46;61.82
21988;BME280;11158;53.404;-1.510;2022-09-09T04:09:32;99281.63;;;19.54;62.09
21988;BME280;11158;53.404;-1.510;2022-09-09T04:11:58;99277.25;;;19.28;62.53
21988;BME280;11158;53.404;-1.510;2022-09-09T04:14:24;99284.31;;;19.39;62.08
21988;BME280;11158;53.404;-1.510;2022-09-09T04:16:54;99286.78;;;19.61;61.49
21988;BME280;11158;53.404;-1.510;2022-09-09T04:19:22;99282.16;;;19.61;61.30
21988;BME280;11158;53.404;-1.510;2022-09-09T04:21:48;99280.28;;;19.52;61.62
21988;BME280;11158;53.404;-1.510;2022-09-09T04:24:16;99281.91;;;19.68;61.17
21988;BME280;11158;53.404;-1.510;2022-09-09T04:26:42;99275.38;;;20.10;60.09
21988;BME280;11158;53.404;-1.510;2022-09-09T04:29:07;99278.06;;;20.20;59.17
21988;BME280;11158;53.404;-1.510;2022-09-09T04:31:33;99286.25;;;20.00;60.23
21988;BME280;11158;53.404;-1.510;2022-09-09T04:33:59;99287.03;;;19.64;61.14
21988;BME280;11158;53.404;-1.510;2022-09-09T04:36:31;99284.88;;;19.56;61.64
21988;BME280;11158;53.404;-1.510;2022-09-09T04:38:57;99281.34;;;20.02;60.29
21988;BME280;11158;53.404;-1.510;2022-09-09T04:41:23;99287.56;;;20.23;59.62
21988;BME280;11158;53.404;-1.510;2022-09-09T04:43:49;99287.25;;;20.35;58.98
21988;BME280;11158;53.404;-1.510;2022-09-09T04:46:15;99286.97;;;20.31;59.20
21988;BME280;11158;53.404;-1.510;2022-09-09T04:48:43;99284.63;;;19.94;59.84
21988;BME280;11158;53.404;-1.510;2022-09-09T04:51:12;99291.69;;;19.69;61.07
21988;BME280;11158;53.404;-1.510;2022-09-09T04:53:38;99293.84;;;20.03;60.41
21988;BME280;11158;53.404;-1.510;2022-09-09T04:58:31;99299.75;;;20.30;59.17
21988;BME280;11158;53.404;-1.510;2022-09-09T05:01:07;99298.72;;;19.85;60.85
21988;BME280;11158;53.404;-1.510;2022-09-09T05:03:33;99301.38;;;20.37;59.49
21988;BME280;11158;53.404;-1.510;2022-09-09T05:06:03;99312.69;;;20.54;59.12
21988;BME280;11158;53.404;-1.510;2022-09-09T05:08:30;99311.19;;;20.02;60.04
21988;BME280;11158;53.404;-1.510;2022-09-09T05:10:55;99315.50;;;20.08;60.11
21988;BME280;11158;53.404;-1.510;2022-09-09T05:13:21;99314.94;;;20.26;59.54
21988;BME280;11158;53.404;-1.510;2022-09-09T05:15:52;99312.53;;;20.25;59.07
21988;BME280;11158;53.404;-1.510;2022-09-09T05:18:18;99317.66;;;20.21;59.38
21988;BME280;11158;53.404;-1.510;2022-09-09T05:20:44;99315.72;;;20.42;58.68
21988;BME280;11158;53.404;-1.510;2022-09-09T05:23:10;99310.84;;;20.44;58.47
21988;BME280;11158;53.404;-1.510;2022-09-09T05:25:38;99320.13;;;19.97;59.81
21988;BME280;11158;53.404;-1.510;2022-09-09T05:28:05;99317.13;;;20.24;59.17
21988;BME280;11158;53.404;-1.510;2022-09-09T05:30:32;99318.47;;;20.37;58.96
21988;BME280;11158;53.404;-1.510;2022-09-09T05:32:58;99310.88;;;20.24;58.67
21988;BME280;11158;53.404;-1.510;2022-09-09T05:35:23;99317.06;;;20.55;58.09
21988;BME280;11158;53.404;-1.510;2022-09-09T05:37:49;99324.66;;;20.53;57.97
21988;BME280;11158;53.404;-1.510;2022-09-09T05:40:14;99320.84;;;20.54;58.16
21988;BME280;11158;53.404;-1.510;2022-09-09T05:42:41;99325.78;;;20.26;58.80
21988;BME280;11158;53.404;-1.510;2022-09-09T05:45:10;99322.81;;;20.18;59.55
21988;BME280;11158;53.404;-1.510;2022-09-09T05:47:36;99326.34;;;20.28;58.90
21988;BME280;11158;53.404;-1.510;2022-09-09T05:50:03;99322.28;;;20.11;59.47
21988;BME280;11158;53.404;-1.510;2022-09-09T05:52:29;99327.72;;;20.21;59.06
21988;BME280;11158;53.404;-1.510;2022-09-09T05:54:55;99326.91;;;19.95;60.06
21988;BME280;11158;53.404;-1.510;2022-09-09T05:57:22;99337.78;;;19.90;60.24
21988;BME280;11158;53.404;-1.510;2022-09-09T05:59:48;99333.66;;;20.28;59.06
21988;BME280;11158;53.404;-1.510;2022-09-09T06:02:13;99338.81;;;20.35;58.59
21988;BME280;11158;53.404;-1.510;2022-09-09T06:04:39;99332.81;;;20.58;58.02
21988;BME280;11158;53.404;-1.510;2022-09-09T06:07:05;99339.88;;;20.59;57.85
21988;BME280;11158;53.404;-1.510;2022-09-09T06:09:31;99347.81;;;20.04;59.29
21988;BME280;11158;53.404;-1.510;2022-09-09T06:11:56;99347.00;;;19.99;59.67
21988;BME280;11158;53.404;-1.510;2022-09-09T06:14:24;99342.38;;;19.99;59.77
21988;BME280;11158;53.404;-1.510;2022-09-09T06:16:51;99352.69;;;20.07;59.30
21988;BME280;11158;53.404;-1.510;2022-09-09T06:19:17;99340.19;;;20.01;59.25
21988;BME280;11158;53.404;-1.510;2022-09-09T06:21:43;99345.31;;;20.39;58.59
21988;BME280;11158;53.404;-1.510;2022-09-09T06:24:10;99355.09;;;20.35;58.77
21988;BME280;11158;53.404;-1.510;2022-09-09T06:26:39;99351.53;;;20.44;58.61
21988;BME280;11158;53.404;-1.510;2022-09-09T06:29:07;99350.16;;;20.52;58.27
21988;BME280;11158;53.404;-1.510;2022-09-09T06:31:35;99362.16;;;19.74;60.23
21988;BME280;11158;53.404;-1.510;2022-09-09T06:34:04;99362.16;;;20.30;59.09
21988;BME280;11158;53.404;-1.510;2022-09-09T06:36:33;99365.41;;;20.27;58.80
21988;BME280;11158;53.404;-1.510;2022-09-09T06:38:59;99370.31;;;20.20;59.09
21988;BME280;11158;53.404;-1.510;2022-09-09T06:41:27;99372.94;;;20.77;57.74
21988;BME280;11158;53.404;-1.510;2022-09-09T06:43:53;99368.72;;;21.15;56.13
21988;BME280;11158;53.404;-1.510;2022-09-09T06:46:26;99370.41;;;20.96;57.38
21988;BME280;11158;53.404;-1.510;2022-09-09T06:48:56;99375.22;;;21.19;56.14
21988;BME280;11158;53.404;-1.510;2022-09-09T06:51:29;99378.69;;;20.29;59.22
21988;BME280;11158;53.404;-1.510;2022-09-09T06:53:58;99378.44;;;20.25;58.97
21988;BME280;11158;53.404;-1.510;2022-09-09T06:56:29;99383.59;;;20.22;59.32
21988;BME280;11158;53.404;-1.510;2022-09-09T06:58:57;99383.06;;;19.84;60.48
21988;BME280;11158;53.404;-1.510;2022-09-09T07:01:31;99379.53;;;20.24;59.12
21988;BME280;11158;53.404;-1.510;2022-09-09T07:03:58;99380.59;;;20.39;59.03
21988;BME280;11158;53.404;-1.510;2022-09-09T07:06:32;99388.47;;;19.74;60.17
21988;BME280;11158;53.404;-1.510;2022-09-09T07:09:03;99395.72;;;19.48;62.22
21988;BME280;11158;53.404;-1.510;2022-09-09T07:11:32;99393.56;;;19.65;60.68
21988;BME280;11158;53.404;-1.510;2022-09-09T07:13:59;99391.47;;;19.98;60.16
21988;BME280;11158;53.404;-1.510;2022-09-09T07:16:25;99381.66;;;20.63;58.53
21988;BME280;11158;53.404;-1.510;2022-09-09T07:18:53;99393.28;;;20.89;57.66
21988;BME280;11158;53.404;-1.510;2022-09-09T07:21:25;99393.25;;;20.95;57.33
21988;BME280;11158;53.404;-1.510;2022-09-09T07:23:52;99393.63;;;20.57;58.17
21988;BME280;11158;53.404;-1.510;2022-09-09T07:26:23;99392.72;;;20.92;57.25
21988;BME280;11158;53.404;-1.510;2022-09-09T07:28:49;99397.41;;;21.47;55.95
21988;BME280;11158;53.404;-1.510;2022-09-09T07:31:17;99389.97;;;21.58;55.04
21988;BME280;11158;53.404;-1.510;2022-09-09T07:33:44;99394.03;;;21.65;54.96
21988;BME280;11158;53.404;-1.510;2022-09-09T07:36:13;99395.03;;;21.74;54.74
21988;BME280;11158;53.404;-1.510;2022-09-09T07:38:41;99397.69;;;22.19;54.08
21988;BME280;11158;53.404;-1.510;2022-09-09T07:41:11;99402.72;;;21.67;54.79
21988;BME280;11158;53.404;-1.510;2022-09-09T07:43:39;99399.94;;;21.72;54.94
21988;BME280;11158;53.404;-1.510;2022-09-09T07:46:06;99402.25;;;20.80;57.16
21988;BME280;11158;53.404;-1.510;2022-09-09T07:48:32;99410.44;;;21.45;56.35
21988;BME280;11158;53.404;-1.510;2022-09-09T07:51:09;99403.13;;;22.24;54.06
21988;BME280;11158;53.404;-1.510;2022-09-09T07:53:38;99418.91;;;21.33;55.99
21988;BME280;11158;53.404;-1.510;2022-09-09T07:56:06;99422.63;;;21.52;55.54
21988;BME280;11158;53.404;-1.510;2022-09-09T07:58:33;99418.19;;;21.67;54.84
21988;BME280;11158;53.404;-1.510;2022-09-09T08:00:58;99421.47;;;22.03;53.99
21988;BME280;11158;53.404;-1.510;2022-09-09T08:03:24;99429.28;;;21.26;55.77
21988;BME280;11158;53.404;-1.510;2022-09-09T08:05:50;99432.50;;;21.33;55.80
21988;BME280;11158;53.404;-1.510;2022-09-09T08:08:15;99438.63;;;20.84;57.30
21988;BME280;11158;53.404;-1.510;2022-09-09T08:10:42;99432.50;;;21.33;55.97
21988;BME280;11158;53.404;-1.510;2022-09-09T08:13:09;99432.13;;;21.55;55.22
21988;BME280;11158;53.404;-1.510;2022-09-09T08:15:34;99436.28;;;21.42;55.25
21988;BME280;11158;53.404;-1.510;2022-09-09T08:18:01;99439.31;;;21.30;56.06
21988;BME280;11158;53.404;-1.510;2022-09-09T08:20:28;99431.94;;;21.36;55.45
21988;BME280;11158;53.404;-1.510;2022-09-09T08:22:55;99442.31;;;21.24;56.03
21988;BME280;11158;53.404;-1.510;2022-09-09T08:25:20;99445.59;;;21.16;55.93
21988;BME280;11158;53.404;-1.510;2022-09-09T08:27:46;99442.44;;;21.63;55.11
21988;BME280;11158;53.404;-1.510;2022-09-09T08:30:12;99453.56;;;21.62;54.78
21988;BME280;11158;53.404;-1.510;2022-09-09T08:32:40;99454.84;;;21.80;54.09
21988;BME280;11158;53.404;-1.510;2022-09-09T08:35:07;99447.34;;;22.01;53.81
21988;BME280;11158;53.404;-1.510;2022-09-09T08:37:33;99453.75;;;22.54;52.29
21988;BME280;11158;53.404;-1.510;2022-09-09T08:39:58;99458.31;;;21.90;54.00
21988;BME280;11158;53.404;-1.510;2022-09-09T08:42:32;99455.75;;;21.65;54.95
21988;BME280;11158;53.404;-1.510;2022-09-09T08:47:39;99475.88;;;20.73;56.81
21988;BME280;11158;53.404;-1.510;2022-09-09T08:52:55;99471.50;;;20.87;56.04
21988;BME280;11158;53.404;-1.510;2022-09-09T08:55:35;99474.03;;;21.44;54.87
21988;BME280;11158;53.404;-1.510;2022-09-09T08:58:18;99482.63;;;20.96;55.35
21988;BME280;11158;53.404;-1.510;2022-09-09T09:03:33;99475.09;;;22.71;51.69
21988;BME280;11158;53.404;-1.510;2022-09-09T09:09:10;99481.63;;;24.10;47.24
21988;BME280;11158;53.404;-1.510;2022-09-09T09:11:39;99480.00;;;24.46;45.98
21988;BME280;11158;53.404;-1.510;2022-09-09T09:14:14;99486.97;;;24.20;45.92
21988;BME280;11158;53.404;-1.510;2022-09-09T09:19:18;99494.25;;;23.19;47.96
21988;BME280;11158;53.404;-1.510;2022-09-09T09:21:50;99507.25;;;21.95;51.06
21988;BME280;11158;53.404;-1.510;2022-09-09T09:27:40;99506.16;;;21.42;53.25
21988;BME280;11158;53.404;-1.510;2022-09-09T09:30:18;99491.53;;;21.82;52.60
21988;BME280;11158;53.404;-1.510;2022-09-09T09:35:17;99498.56;;;22.96;48.31
21988;BME280;11158;53.404;-1.510;2022-09-09T09:37:44;99500.09;;;22.78;48.95
21988;BME280;11158;53.404;-1.510;2022-09-09T09:40:14;99514.22;;;22.12;50.30
21988;BME280;11158;53.404;-1.510;2022-09-09T09:43:00;99507.06;;;22.26;50.31
21988;BME280;11158;53.404;-1.510;2022-09-09T09:45:43;99502.94;;;22.68;49.27
21988;BME280;11158;53.404;-1.510;2022-09-09T09:48:13;99506.31;;;23.13;48.06
21988;BME280;11158;53.404;-1.510;2022-09-09T09:50:57;99509.97;;;24.14;46.40
21988;BME280;11158;53.404;-1.510;2022-09-09T09:53:29;99515.44;;;24.14;45.42
21988;BME280;11158;53.404;-1.510;2022-09-09T09:56:01;99522.75;;;23.99;45.83
21988;BME280;11158;53.404;-1.510;2022-09-09T09:58:31;99523.84;;;23.55;46.07
21988;BME280;11158;53.404;-1.510;2022-09-09T10:00:59;99515.13;;;23.05;47.89
21988;BME280;11158;53.404;-1.510;2022-09-09T10:03:31;99516.84;;;23.25;47.97
21988;BME280;11158;53.404;-1.510;2022-09-09T10:05:57;99520.94;;;23.23;47.61
21988;BME280;11158;53.404;-1.510;2022-09-09T10:08:25;99522.63;;;23.42;47.47
21988;BME280;11158;53.404;-1.510;2022-09-09T10:14:17;99521.69;;;23.76;46.58
21988;BME280;11158;53.404;-1.510;2022-09-09T10:19:16;99518.38;;;25.02;43.63
21988;BME280;11158;53.404;-1.510;2022-09-09T10:24:45;99522.94;;;25.06;42.88
21988;BME280;11158;53.404;-1.510;2022-09-09T10:30:18;99527.00;;;24.43;44.07
21988;BME280;11158;53.404;-1.510;2022-09-09T10:36:13;99523.75;;;24.41;44.69
21988;BME280;11158;53.404;-1.510;2022-09-09T10:38:41;99510.81;;;25.26;42.34
21988;BME280;11158;53.404;-1.510;2022-09-09T10:41:42;99520.72;;;24.95;43.53
21988;BME280;11158;53.404;-1.510;2022-09-09T10:55:15;99525.22;;;23.96;45.16
21988;BME280;11158;53.404;-1.510;2022-09-09T10:57:54;99532.97;;;24.45;43.88
21988;BME280;11158;53.404;-1.510;2022-09-09T11:00:24;99530.75;;;24.66;44.39
21988;BME280;11158;53.404;-1.510;2022-09-09T11:02:56;99531.53;;;24.86;42.90
21988;BME280;11158;53.404;-1.510;2022-09-09T11:05:43;99531.53;;;24.86;43.19
21988;BME280;11158;53.404;-1.510;2022-09-09T11:08:17;99529.00;;;25.03;42.80
21988;BME280;11158;53.404;-1.510;2022-09-09T11:11:09;99509.41;;;25.70;40.71
21988;BME280;11158;53.404;-1.510;2022-09-09T11:18:58;99515.38;;;26.45;38.12
21988;BME280;11158;53.404;-1.510;2022-09-09T11:21:30;99509.16;;;26.76;38.43
21988;BME280;11158;53.404;-1.510;2022-09-09T11:24:02;99508.22;;;26.36;40.59
21988;BME280;11158;53.404;-1.510;2022-09-09T11:26:46;99529.84;;;24.71;43.96
21988;BME280;11158;53.404;-1.510;2022-09-09T11:29:36;99535.28;;;23.04;50.95
21988;BME280;11158;53.404;-1.510;2022-09-09T11:37:45;99552.72;;;20.68;56.20
21988;BME280;11158;53.404;-1.510;2022-09-09T11:40:31;99558.94;;;20.59;56.65
21988;BME280;11158;53.404;-1.510;2022-09-09T11:43:17;99549.97;;;20.53;55.65
21988;BME280;11158;53.404;-1.510;2022-09-09T11:45:55;99547.72;;;21.42;53.75
21988;BME280;11158;53.404;-1.510;2022-09-09T11:48:46;99543.91;;;21.38;53.83
21988;BME280;11158;53.404;-1.510;2022-09-09T11:56:54;99554.59;;;21.94;52.82
21988;BME280;11158;53.404;-1.510;2022-09-09T11:59:25;99563.03;;;22.43;51.92
21988;BME280;11158;53.404;-1.510;2022-09-09T12:01:56;99560.88;;;23.08;50.54
21988;BME280;11158;53.404;-1.510;2022-09-09T12:12:37;99540.72;;;25.37;45.15
21988;BME280;11158;53.404;-1.510;2022-09-09T12:17:42;99544.56;;;25.77;43.08
21988;BME280;11158;53.404;-1.510;2022-09-09T12:31:49;99573.13;;;19.35;69.34
21988;BME280;11158;53.404;-1.510;2022-09-09T12:37:06;99562.13;;;21.32;62.58
21988;BME280;11158;53.404;-1.510;2022-09-09T12:39:45;99568.25;;;21.79;60.56
21988;BME280;11158;53.404;-1.510;2022-09-09T12:42:17;99573.09;;;22.47;58.91
21988;BME280;11158;53.404;-1.510;2022-09-09T12:44:59;99585.56;;;22.88;58.20
21988;BME280;11158;53.404;-1.510;2022-09-09T12:47:48;99586.44;;;21.89;60.37
21988;BME280;11158;53.404;-1.510;2022-09-09T12:50:21;99593.72;;;22.04;60.39
21988;BME280;11158;53.404;-1.510;2022-09-09T12:52:50;99598.28;;;21.53;61.35
21988;BME280;11158;53.404;-1.510;2022-09-09T12:55:23;99607.50;;;21.52;61.74
21988;BME280;11158;53.404;-1.510;2022-09-09T12:57:53;99608.00;;;22.35;59.67
21988;BME280;11158;53.404;-1.510;2022-09-09T13:00:21;99615.69;;;22.23;59.62
21988;BME280;11158;53.404;-1.510;2022-09-09T13:02:49;99615.00;;;22.86;57.14
21988;BME280;11158;53.404;-1.510;2022-09-09T13:05:24;99619.28;;;23.02;56.72
21988;BME280;11158;53.404;-1.510;2022-09-09T13:07:51;99626.88;;;22.66;55.88
21988;BME280;11158;53.404;-1.510;2022-09-09T13:10:24;99628.19;;;22.29;55.96
21988;BME280;11158;53.404;-1.510;2022-09-09T13:12:52;99631.16;;;22.32;54.60
21988;BME280;11158;53.404;-1.510;2022-09-09T13:15:24;99629.53;;;22.31;53.41
21988;BME280;11158;53.404;-1.510;2022-09-09T13:18:13;99620.91;;;22.09;54.30
21988;BME280;11158;53.404;-1.510;2022-09-09T13:20:39;99624.53;;;21.89;54.20
21988;BME280;11158;53.404;-1.510;2022-09-09T13:23:12;99630.84;;;21.69;55.74
21988;BME280;11158;53.404;-1.510;2022-09-09T13:25:38;99628.47;;;21.06;58.44
21988;BME280;11158;53.404;-1.510;2022-09-09T13:28:05;99632.53;;;20.83;60.03
21988;BME280;11158;53.404;-1.510;2022-09-09T13:30:32;99621.13;;;20.86;60.38
21988;BME280;11158;53.404;-1.510;2022-09-09T13:38:18;99643.75;;;20.13;62.20
21988;BME280;11158;53.404;-1.510;2022-09-09T13:41:06;99645.28;;;20.77;60.90
21988;BME280;11158;53.404;-1.510;2022-09-09T13:43:43;99645.31;;;20.87;59.98
21988;BME280;11158;53.404;-1.510;2022-09-09T13:46:28;99639.84;;;20.67;61.09
21988;BME280;11158;53.404;-1.510;2022-09-09T13:51:39;99646.09;;;21.60;59.99
21988;BME280;11158;53.404;-1.510;2022-09-09T13:54:09;99649.91;;;22.39;58.58
21988;BME280;11158;53.404;-1.510;2022-09-09T13:56:36;99644.69;;;22.87;56.98
21988;BME280;11158;53.404;-1.510;2022-09-09T13:59:04;99640.47;;;23.39;55.50
21988;BME280;11158;53.404;-1.510;2022-09-09T14:01:31;99627.94;;;23.62;54.18
21988;BME280;11158;53.404;-1.510;2022-09-09T14:03:57;99633.09;;;23.40;54.20
21988;BME280;11158;53.404;-1.510;2022-09-09T14:06:22;99626.28;;;23.67;53.18
21988;BME280;11158;53.404;-1.510;2022-09-09T14:08:50;99628.31;;;24.23;52.04
21988;BME280;11158;53.404;-1.510;2022-09-09T14:11:16;99649.41;;;23.98;52.57
21988;BME280;11158;53.404;-1.510;2022-09-09T14:13:43;99661.28;;;23.54;53.33
21988;BME280;11158;53.404;-1.510;2022-09-09T14:16:09;99665.03;;;23.05;55.54
21988;BME280;11158;53.404;-1.510;2022-09-09T14:18:36;99672.16;;;21.71;57.72
21988;BME280;11158;53.404;-1.510;2022-09-09T14:21:03;99683.59;;;20.81;60.80
21988;BME280;11158;53.404;-1.510;2022-09-09T14:23:29;99688.34;;;20.43;61.53
21988;BME280;11158;53.404;-1.510;2022-09-09T14:25:55;99685.31;;;19.71;63.35
21988;BME280;11158;53.404;-1.510;2022-09-09T14:28:21;99685.53;;;19.27;64.79
21988;BME280;11158;53.404;-1.510;2022-09-09T14:30:47;99675.81;;;19.31;64.63
21988;BME280;11158;53.404;-1.510;2022-09-09T14:33:15;99678.56;;;19.36;62.85
21988;BME280;11158;53.404;-1.510;2022-09-09T14:35:42;99682.19;;;19.52;63.49
21988;BME280;11158;53.404;-1.510;2022-09-09T14:38:08;99679.16;;;19.49;63.39
21988;BME280;11158;53.404;-1.510;2022-09-09T14:40:36;99678.28;;;19.70;63.03
21988;BME280;11158;53.404;-1.510;2022-09-09T14:43:02;99678.81;;;20.30;61.27
21988;BME280;11158;53.404;-1.510;2022-09-09T14:45:28;99675.53;;;20.23;60.74
21988;BME280;11158;53.404;-1.510;2022-09-09T14:47:54;99682.78;;;20.80;60.51
21988;BME280;11158;53.404;-1.510;2022-09-09T14:50:21;99675.72;;;20.84;59.70
21988;BME280;11158;53.404;-1.510;2022-09-09T14:52:48;99679.53;;;21.34;58.62
21988;BME280;11158;53.404;-1.510;2022-09-09T14:55:14;99676.28;;;21.53;58.02
21988;BME280;11158;53.404;-1.510;2022-09-09T14:57:41;99677.09;;;21.59;58.00
21988;BME280;11158;53.404;-1.510;2022-09-09T15:00:08;99681.41;;;21.75;57.65
21988;BME280;11158;53.404;-1.510;2022-09-09T15:02:34;99676.66;;;22.16;56.48
21988;BME280;11158;53.404;-1.510;2022-09-09T15:05:00;99671.44;;;22.30;56.20
21988;BME280;11158;53.404;-1.510;2022-09-09T15:07:26;99659.03;;;22.64;55.10
21988;BME280;11158;53.404;-1.510;2022-09-09T15:09:54;99668.81;;;22.05;56.24
21988;BME280;11158;53.404;-1.510;2022-09-09T15:12:20;99665.72;;;22.82;55.75
21988;BME280;11158;53.404;-1.510;2022-09-09T15:14:46;99662.69;;;23.52;54.61
21988;BME280;11158;53.404;-1.510;2022-09-09T15:17:13;99656.66;;;23.84;53.17
21988;BME280;11158;53.404;-1.510;2022-09-09T15:19:39;99658.75;;;23.05;54.17
21988;BME280;11158;53.404;-1.510;2022-09-09T15:22:05;99664.53;;;23.32;53.71
21988;BME280;11158;53.404;-1.510;2022-09-09T15:24:34;99667.34;;;23.51;54.08
21988;BME280;11158;53.404;-1.510;2022-09-09T15:27:01;99669.06;;;23.95;52.93
21988;BME280;11158;53.404;-1.510;2022-09-09T15:29:27;99663.19;;;24.07;51.49